Saltillo, México

9:54 PM CDT en Octubre 25, 2014 (GMT -0500)
Meteo Sur | Change Station
CLOSE
Current Station
Estación meteorológica personal
Location: Saltillo, COAHUILA DE ZARAGOZA
Altura: 5545 ft
Estaciones meteorológicas cercanas

Alt 5545 ft 25.39 °N, 101.02 °W | Updated 9 seconds ago

Clear
Despejado
61.4 ° F
Sensación térmica 61.4 ° F
N
0.0
Viento Variable Viento desde NNE

Hoy
Alta -- | Baja -- ° F
--% Posibilidad de precipitaciones
Ayer
Alta -- | Baja -- ° F
Precip. -- pul
7:47 AM 7:08 PM
Creciente, 5% visible
Presión 30.30 pul
Visibilidad 10.0 Millas
Nubes Despejado
Punto de rocío 53 ° F
Humedad 74%
Precipitaciones 0.00 pul
Espesor de la nieve No disponible.
UV 0 de una escala de 12
Polen No disponible.
Calidad del aire No disponible.
Flu Activity No disponible.
METAR MMIO 260240Z 02008KT 10SM SKC 19/13 A3030 RMK HZY

More Conditions Fewer Conditions

Presión 30.30 pul
Visibilidad 10.0 Millas
Nubes Despejado
Punto de rocío 53 ° F
Humedad 74%
Precipitaciones 0.00 pul
Espesor de la nieve No disponible.
UV 0 de una escala de 12
Polen No disponible.
Calidad del aire No disponible.
Flu Activity No disponible.
METAR MMIO 260240Z 02008KT 10SM SKC 19/13 A3030 RMK HZY

More Conditions Fewer Conditions

10-Day Weather Forecast

Almanac

Astronomía

Oct. 25, 2014 Salida Puesta
Hora real 7:47 AM CDT 7:08 PM CDT
Crepúsculo civil 7:24 AM CDT 7:31 PM CDT
Crepúsculo náutico 6:57 AM CDT 7:58 PM CDT
Crepúsculo astronómico 6:30 AM CDT 8:25 PM CDT
Luna 8:21 AM CDT (10/25) 7:41 PM CDT (10/25)
Horas de luz 12h 06m
Horas de luz
11h 20m
Tomorrow will be 1m 21s shorter.
Creciente, 5% of the Moon is Illuminated
Hoy
Creciente
Oct 30
Cuarto creciente
Nov 6
Luna llena
Nov 14
Cuarto menguante
Nov 22
Nueva

Extremos de hoy

Máximos del país Bajas del país

Community

WunderPhotos

Upload Photos

1,765,086 ¡fotos cargadas!

Nearby

Calidad del aire

Not available.

Grosos de nieve

Not available.

Actividad de terremotos

Ciudad Distance Mag. Tiempo y dato
No hay informes recientes de la actividad sísmica.
Magnitud mínima muestra es 2,5.

Temperaturas de aguas costeras

Lugar Temperatura
Sin partes meteorológicos de las estaciones

Estaciones meteorológicas cercanas